createdAt,value
2018-12-10T00:01:24.155Z,15.50
2018-12-10T00:03:57.393Z,15.50
2018-12-10T00:06:30.469Z,15.50
2018-12-10T00:09:01.544Z,15.50
2018-12-10T00:11:34.703Z,15.50
2018-12-10T00:14:05.802Z,15.50
2018-12-10T00:16:36.894Z,15.40
2018-12-10T00:19:07.994Z,15.40
2018-12-10T00:21:38.995Z,15.40
2018-12-10T00:24:10.072Z,15.50
2018-12-10T00:26:41.254Z,15.40
2018-12-10T00:29:12.579Z,15.40
2018-12-10T00:31:44.008Z,15.50
2018-12-10T00:34:15.125Z,15.40
2018-12-10T00:36:46.332Z,15.40
2018-12-10T00:39:17.296Z,15.40
2018-12-10T00:41:48.396Z,15.40
2018-12-10T00:44:19.509Z,15.40
2018-12-10T00:46:50.707Z,15.40
2018-12-10T00:49:21.792Z,15.40
2018-12-10T00:51:52.933Z,15.40
2018-12-10T00:54:24.008Z,15.40
2018-12-10T00:56:55.303Z,15.40
2018-12-10T00:59:26.299Z,15.40
2018-12-10T01:01:57.380Z,15.40
2018-12-10T01:04:28.562Z,15.40
2018-12-10T01:06:59.578Z,15.30
2018-12-10T01:09:30.667Z,15.40
2018-12-10T01:12:01.855Z,15.40
2018-12-10T01:14:33.303Z,15.30
2018-12-10T01:17:04.404Z,15.30
2018-12-10T01:19:36.539Z,15.30
2018-12-10T01:22:07.632Z,15.30
2018-12-10T01:24:38.788Z,15.30
2018-12-10T01:27:09.903Z,15.30
2018-12-10T01:29:40.974Z,15.30
2018-12-10T01:32:12.072Z,15.20
2018-12-10T01:34:43.138Z,15.20
2018-12-10T01:37:14.325Z,15.30
2018-12-10T01:39:45.289Z,15.30
2018-12-10T01:42:16.392Z,15.20
2018-12-10T01:44:48.463Z,15.20
2018-12-10T01:47:19.557Z,15.20
2018-12-10T01:49:50.691Z,15.20
2018-12-10T01:52:21.884Z,15.20
2018-12-10T01:54:52.883Z,15.20
2018-12-10T01:57:23.985Z,15.20
2018-12-10T01:59:55.048Z,15.20
2018-12-10T02:02:31.323Z,15.20
2018-12-10T02:05:07.494Z,15.20
2018-12-10T02:07:38.603Z,15.20
2018-12-10T02:10:09.991Z,15.20
2018-12-10T02:12:46.251Z,15.20
2018-12-10T02:15:22.555Z,15.20
2018-12-10T02:17:53.653Z,15.20
2018-12-10T02:20:24.611Z,15.20
2018-12-10T02:22:55.714Z,15.20
2018-12-10T02:25:26.793Z,15.20
2018-12-10T02:27:57.889Z,15.20
2018-12-10T02:30:28.979Z,15.20
2018-12-10T02:33:00.093Z,15.20
2018-12-10T02:35:31.169Z,15.20
2018-12-10T02:38:02.588Z,15.20
2018-12-10T02:40:33.666Z,15.20
2018-12-10T02:43:04.743Z,15.20
2018-12-10T02:45:35.859Z,15.20
2018-12-10T02:48:06.954Z,15.20
2018-12-10T02:50:38.028Z,15.20
2018-12-10T02:53:09.127Z,15.20
2018-12-10T02:55:46.833Z,15.20
2018-12-10T02:58:17.967Z,15.20
2018-12-10T03:00:49.042Z,15.20
2018-12-10T03:03:20.483Z,15.20
2018-12-10T03:05:51.556Z,15.20
2018-12-10T03:08:22.657Z,15.20
2018-12-10T03:10:53.736Z,15.20
2018-12-10T03:13:24.849Z,15.20
2018-12-10T03:15:55.927Z,15.20
2018-12-10T03:18:27.014Z,15.20
2018-12-10T03:20:58.094Z,15.20
2018-12-10T03:23:29.188Z,15.10
2018-12-10T03:26:00.258Z,15.10
2018-12-10T03:28:31.347Z,15.20
2018-12-10T03:31:04.305Z,15.20
2018-12-10T03:33:35.292Z,15.20
2018-12-10T03:36:06.398Z,15.10
2018-12-10T03:38:37.489Z,15.10
2018-12-10T03:41:08.624Z,15.10
2018-12-10T03:43:40.789Z,15.10
2018-12-10T03:46:11.889Z,15.10
2018-12-10T03:48:42.989Z,15.10
2018-12-10T03:51:14.074Z,15.10
2018-12-10T03:53:45.166Z,15.10
2018-12-10T03:56:16.244Z,15.10
2018-12-10T03:58:47.352Z,15.10
2018-12-10T04:01:18.503Z,15.10
2018-12-10T04:03:49.639Z,15.10
2018-12-10T04:06:20.708Z,15.00
2018-12-10T04:08:51.915Z,15.00
2018-12-10T04:11:22.987Z,15.00
2018-12-10T04:13:54.104Z,15.00
2018-12-10T04:16:25.188Z,15.00
2018-12-10T04:18:56.180Z,15.00
2018-12-10T04:21:34.041Z,15.00
2018-12-10T04:24:05.174Z,15.00
2018-12-10T04:26:36.241Z,15.00
2018-12-10T04:29:07.423Z,15.00
2018-12-10T04:31:38.484Z,15.00
2018-12-10T04:34:09.591Z,15.00
2018-12-10T04:36:40.755Z,15.00
2018-12-10T04:39:11.856Z,15.00
2018-12-10T04:41:42.937Z,15.00
2018-12-10T04:44:14.145Z,15.00
2018-12-10T04:46:45.220Z,15.00
2018-12-10T04:49:16.322Z,15.00
2018-12-10T04:51:47.401Z,15.00
2018-12-10T04:54:18.488Z,14.90
2018-12-10T04:56:49.569Z,14.90
2018-12-10T04:59:20.567Z,14.90
2018-12-10T05:01:51.645Z,14.90
2018-12-10T05:04:22.744Z,14.90
2018-12-10T05:06:53.857Z,14.90
2018-12-10T05:09:25.014Z,14.90
2018-12-10T05:11:56.117Z,14.90
2018-12-10T05:14:27.305Z,14.80
2018-12-10T05:16:58.392Z,14.80
2018-12-10T05:19:29.500Z,14.90
2018-12-10T05:22:00.580Z,14.90
2018-12-10T05:24:31.681Z,14.80
2018-12-10T05:27:02.779Z,14.80
2018-12-10T05:29:33.897Z,14.80
2018-12-10T05:32:05.034Z,14.80
2018-12-10T05:34:36.133Z,14.80
2018-12-10T05:37:07.254Z,14.80
2018-12-10T05:39:38.614Z,14.80
2018-12-10T05:42:09.916Z,14.80
2018-12-10T05:44:41.107Z,14.80
2018-12-10T05:47:12.278Z,14.90
2018-12-10T05:49:43.378Z,14.90
2018-12-10T05:52:14.468Z,14.90
2018-12-10T05:54:45.575Z,14.90
2018-12-10T05:57:16.532Z,14.90
2018-12-10T05:59:47.737Z,14.90
2018-12-10T06:02:18.810Z,14.80
2018-12-10T06:04:49.896Z,14.80
2018-12-10T06:07:21.238Z,14.80
2018-12-10T06:09:52.381Z,14.90
2018-12-10T06:12:23.527Z,14.90
2018-12-10T06:14:54.644Z,14.80
2018-12-10T06:17:25.602Z,14.80
2018-12-10T06:19:56.648Z,14.80
2018-12-10T06:22:28.587Z,14.80
2018-12-10T06:24:59.585Z,14.80
2018-12-10T06:27:30.655Z,14.80
2018-12-10T06:30:01.788Z,14.80
2018-12-10T06:32:33.100Z,14.80
2018-12-10T06:35:04.255Z,14.80
2018-12-10T06:37:41.944Z,14.80
2018-12-10T06:40:13.040Z,14.80
2018-12-10T06:42:44.350Z,14.80
2018-12-10T06:45:15.468Z,14.80
2018-12-10T06:47:46.663Z,14.80
2018-12-10T06:50:17.790Z,14.80
2018-12-10T06:52:48.862Z,14.80
2018-12-10T06:55:19.985Z,14.80
2018-12-10T06:57:51.058Z,14.80
2018-12-10T07:00:22.178Z,14.80
2018-12-10T07:02:53.257Z,14.80
2018-12-10T07:05:24.433Z,14.80
2018-12-10T07:07:55.561Z,14.80
2018-12-10T07:10:27.608Z,14.80
2018-12-10T07:12:58.761Z,14.80
2018-12-10T07:15:29.723Z,14.80
2018-12-10T07:18:00.834Z,14.70
2018-12-10T07:20:31.954Z,14.70
2018-12-10T07:23:03.044Z,14.70
2018-12-10T07:25:34.122Z,14.70
2018-12-10T07:28:05.221Z,14.70
2018-12-10T07:30:41.389Z,14.70
2018-12-10T07:33:09.576Z,14.70
2018-12-10T07:35:40.696Z,14.70
2018-12-10T07:38:12.970Z,14.70
2018-12-10T07:40:44.033Z,14.70
2018-12-10T07:43:15.167Z,14.70
2018-12-10T07:45:46.137Z,14.70
2018-12-10T07:48:17.240Z,14.70
2018-12-10T07:50:48.352Z,14.70
2018-12-10T07:53:19.463Z,14.70
2018-12-10T07:55:50.997Z,14.70
2018-12-10T07:58:22.783Z,14.70
2018-12-10T08:00:53.750Z,14.70
2018-12-10T08:03:24.848Z,14.70
2018-12-10T08:05:56.005Z,14.70
2018-12-10T08:08:27.100Z,14.70
2018-12-10T08:10:58.221Z,14.70
2018-12-10T08:13:29.270Z,14.70
2018-12-10T08:16:00.352Z,14.70
2018-12-10T08:18:31.452Z,14.70
2018-12-10T08:21:02.777Z,14.70
2018-12-10T08:23:33.993Z,14.70
2018-12-10T08:26:05.109Z,14.70
2018-12-10T08:28:36.291Z,14.70
2018-12-10T08:31:07.431Z,14.70
2018-12-10T08:33:38.520Z,14.70
2018-12-10T08:36:09.707Z,14.70
2018-12-10T08:38:40.896Z,14.70
2018-12-10T08:41:12.133Z,14.70
2018-12-10T08:43:43.224Z,14.70
2018-12-10T08:46:14.309Z,14.70
2018-12-10T08:48:46.509Z,14.70
2018-12-10T08:51:17.648Z,14.70
2018-12-10T08:53:48.923Z,14.70
2018-12-10T08:56:20.064Z,14.70
2018-12-10T08:58:51.232Z,14.70
2018-12-10T09:01:22.367Z,14.70
2018-12-10T09:03:53.732Z,14.70
2018-12-10T09:06:24.964Z,14.70
2018-12-10T09:08:56.136Z,14.70
2018-12-10T09:11:27.268Z,14.70
2018-12-10T09:13:58.392Z,14.70
2018-12-10T09:16:29.562Z,14.70
2018-12-10T09:19:01.651Z,14.70
2018-12-10T09:21:33.888Z,14.70
2018-12-10T09:24:05.020Z,14.80
2018-12-10T09:26:36.113Z,14.70
2018-12-10T09:29:07.120Z,14.80
2018-12-10T09:31:38.205Z,14.80
2018-12-10T09:34:09.320Z,14.80
2018-12-10T09:36:40.748Z,14.80
2018-12-10T09:39:11.861Z,14.80
2018-12-10T09:41:42.991Z,14.80
2018-12-10T09:44:14.070Z,14.80
2018-12-10T09:46:45.237Z,14.70
2018-12-10T09:49:16.429Z,14.70
2018-12-10T09:51:47.513Z,14.80
2018-12-10T09:54:18.511Z,14.80
2018-12-10T09:56:49.504Z,14.80
2018-12-10T09:59:20.596Z,14.80
2018-12-10T10:01:51.663Z,14.80
2018-12-10T10:04:22.784Z,14.80
2018-12-10T10:06:54.024Z,14.80
2018-12-10T10:09:25.132Z,14.80
2018-12-10T10:11:56.102Z,14.80
2018-12-10T10:14:27.132Z,14.80
2018-12-10T10:16:58.216Z,14.80
2018-12-10T10:19:29.388Z,14.80
2018-12-10T10:22:00.490Z,14.80
2018-12-10T10:24:31.580Z,14.80
2018-12-10T10:27:02.662Z,14.80
2018-12-10T10:29:33.780Z,14.80
2018-12-10T10:32:04.871Z,14.80
2018-12-10T10:34:36.029Z,14.80
2018-12-10T10:37:07.059Z,14.90
2018-12-10T10:39:38.057Z,14.90
2018-12-10T10:42:11.094Z,14.90
2018-12-10T10:44:42.208Z,14.90
2018-12-10T10:47:13.273Z,14.90
2018-12-10T10:49:44.373Z,14.90
2018-12-10T10:52:15.481Z,14.90
2018-12-10T10:54:46.610Z,14.90
2018-12-10T10:57:17.772Z,15.00
2018-12-10T10:59:48.764Z,15.00
2018-12-10T11:02:24.983Z,15.00
2018-12-10T11:04:56.204Z,15.00
2018-12-10T11:07:27.332Z,15.00
2018-12-10T11:09:58.303Z,15.00
2018-12-10T11:12:29.419Z,15.00
2018-12-10T11:15:00.585Z,15.00
2018-12-10T11:17:31.669Z,15.00
2018-12-10T11:20:02.801Z,15.10
2018-12-10T11:22:33.894Z,15.10
2018-12-10T11:25:05.217Z,15.10
2018-12-10T11:27:37.598Z,15.10
2018-12-10T11:30:09.155Z,15.10
2018-12-10T11:32:40.361Z,15.10
2018-12-10T11:35:11.526Z,15.10
2018-12-10T11:37:42.693Z,15.10
2018-12-10T11:40:13.888Z,15.10
2018-12-10T11:42:47.080Z,15.10
2018-12-10T11:45:18.248Z,15.10
2018-12-10T11:47:49.402Z,15.10
2018-12-10T11:50:20.533Z,15.20
2018-12-10T11:52:51.820Z,15.10
2018-12-10T11:55:22.934Z,15.10
2018-12-10T11:57:54.007Z,15.10
2018-12-10T12:00:25.116Z,15.20
2018-12-10T12:02:56.280Z,15.20
2018-12-10T12:05:27.439Z,15.20
2018-12-10T12:07:58.532Z,15.20
2018-12-10T12:10:29.531Z,15.20
2018-12-10T12:13:00.653Z,15.20
2018-12-10T12:15:31.851Z,15.20
2018-12-10T12:18:02.933Z,15.20
2018-12-10T12:20:34.036Z,15.20
2018-12-10T12:23:05.175Z,15.20
2018-12-10T12:25:36.168Z,15.20
2018-12-10T12:28:07.290Z,15.20
2018-12-10T12:30:38.267Z,15.20
2018-12-10T12:33:09.358Z,15.20
2018-12-10T12:35:40.389Z,15.20
2018-12-10T12:38:11.506Z,15.20
2018-12-10T12:40:42.622Z,15.20
2018-12-10T12:43:16.088Z,15.20
2018-12-10T12:45:49.823Z,15.20
2018-12-10T12:48:20.921Z,15.20
2018-12-10T12:50:52.020Z,15.20
2018-12-10T12:53:23.087Z,15.20
2018-12-10T12:55:54.184Z,15.20
2018-12-10T12:58:25.260Z,15.20
2018-12-10T13:00:59.843Z,15.30
2018-12-10T13:03:29.448Z,15.30
2018-12-10T13:06:06.754Z,15.30
2018-12-10T13:08:33.674Z,15.30
2018-12-10T13:11:04.776Z,15.30
2018-12-10T13:13:36.075Z,15.30
2018-12-10T13:16:07.309Z,15.30
2018-12-10T13:18:38.382Z,15.30
2018-12-10T13:21:09.493Z,15.30
2018-12-10T13:23:40.589Z,15.30
2018-12-10T13:26:11.692Z,15.30
2018-12-10T13:28:42.763Z,15.30
2018-12-10T13:31:14.937Z,15.30
2018-12-10T13:33:45.915Z,15.30
2018-12-10T13:36:17.025Z,15.30
2018-12-10T13:38:48.100Z,15.30
2018-12-10T13:41:19.214Z,15.30
2018-12-10T13:43:50.293Z,15.30
2018-12-10T13:46:21.404Z,15.30
2018-12-10T13:48:52.591Z,15.30
2018-12-10T13:51:23.692Z,15.30
2018-12-10T13:53:54.673Z,15.30
2018-12-10T13:56:25.820Z,15.30
2018-12-10T13:58:56.927Z,15.30
2018-12-10T14:01:28.049Z,15.30
2018-12-10T14:03:59.843Z,15.30
2018-12-10T14:06:30.944Z,15.30
2018-12-10T14:09:02.029Z,15.30
2018-12-10T14:11:35.025Z,15.20
2018-12-10T14:14:07.308Z,15.20
2018-12-10T14:16:38.448Z,15.30
2018-12-10T14:19:09.811Z,15.30
2018-12-10T14:21:41.897Z,15.30
2018-12-10T14:24:12.979Z,15.30
2018-12-10T14:26:46.019Z,15.30
2018-12-10T14:29:17.141Z,15.30
2018-12-10T14:31:48.269Z,15.30
2018-12-10T14:34:24.513Z,15.30
2018-12-10T14:36:55.545Z,15.30
2018-12-10T14:39:26.752Z,15.30
2018-12-10T14:41:57.896Z,15.20
2018-12-10T14:44:28.950Z,15.20
2018-12-10T14:47:00.144Z,15.20
2018-12-10T14:49:31.499Z,15.20
2018-12-10T14:52:03.212Z,15.20
2018-12-10T14:54:34.352Z,15.20
2018-12-10T14:57:05.487Z,15.20
2018-12-10T14:59:36.835Z,15.20
2018-12-10T15:02:07.836Z,15.20
2018-12-10T15:04:41.039Z,15.20
2018-12-10T15:07:12.177Z,15.20
2018-12-10T15:09:43.593Z,15.30
2018-12-10T15:12:15.101Z,15.20
2018-12-10T15:14:46.311Z,15.20
2018-12-10T15:17:17.436Z,15.20
2018-12-10T15:19:48.971Z,15.20
2018-12-10T15:22:20.097Z,15.20
2018-12-10T15:24:51.395Z,15.20
2018-12-10T15:27:22.693Z,15.20
2018-12-10T15:29:55.112Z,15.20
2018-12-10T15:32:26.641Z,15.20
2018-12-10T15:34:57.940Z,15.20
2018-12-10T15:37:29.047Z,15.20
2018-12-10T15:40:00.032Z,15.20
2018-12-10T15:42:31.140Z,15.20
2018-12-10T15:45:02.093Z,15.20
2018-12-10T15:47:33.299Z,15.20
2018-12-10T15:50:04.638Z,15.20
2018-12-10T15:52:35.745Z,15.20
2018-12-10T15:55:06.836Z,15.20
2018-12-10T15:57:37.989Z,15.20
2018-12-10T16:00:09.552Z,15.20
2018-12-10T16:02:40.708Z,15.20
2018-12-10T16:05:12.325Z,15.20
2018-12-10T16:07:43.511Z,15.20
2018-12-10T16:10:14.602Z,15.20
2018-12-10T16:12:45.828Z,15.20
2018-12-10T16:15:16.906Z,15.20
2018-12-10T16:17:48.128Z,15.20
2018-12-10T16:20:19.228Z,15.20
2018-12-10T16:22:50.396Z,15.10
2018-12-10T16:25:21.976Z,15.10
2018-12-10T16:27:53.445Z,15.10
2018-12-10T16:30:25.021Z,15.20
2018-12-10T16:32:56.501Z,15.20
2018-12-10T16:35:27.664Z,15.10
2018-12-10T16:37:58.763Z,15.10
2018-12-10T16:40:29.841Z,15.10
2018-12-10T16:43:00.856Z,15.10
2018-12-10T16:45:31.946Z,15.10
2018-12-10T16:48:03.125Z,15.10
2018-12-10T16:50:34.203Z,15.10
2018-12-10T16:53:05.311Z,15.00
2018-12-10T16:55:36.403Z,15.00
2018-12-10T16:58:07.513Z,15.00
2018-12-10T17:00:38.643Z,15.00
2018-12-10T17:03:09.751Z,14.90
2018-12-10T17:05:40.843Z,14.90
2018-12-10T17:08:11.937Z,14.90
2018-12-10T17:10:43.008Z,14.90
2018-12-10T17:13:14.123Z,14.90
2018-12-10T17:15:45.207Z,14.80
2018-12-10T17:18:16.296Z,14.80
2018-12-10T17:20:47.409Z,14.80
2018-12-10T17:23:18.735Z,14.80
2018-12-10T17:25:49.948Z,14.80
2018-12-10T17:28:21.053Z,14.80
2018-12-10T17:30:52.128Z,14.80
2018-12-10T17:33:23.320Z,14.80
2018-12-10T17:35:58.456Z,14.70
2018-12-10T17:38:29.589Z,14.70
2018-12-10T17:41:00.664Z,14.70
2018-12-10T17:43:31.789Z,14.70
2018-12-10T17:46:02.896Z,14.70
2018-12-10T17:48:33.989Z,14.70
2018-12-10T17:51:05.142Z,14.60
2018-12-10T17:53:36.319Z,14.60
2018-12-10T17:56:07.447Z,14.60
2018-12-10T17:58:38.742Z,14.60
2018-12-10T18:01:09.885Z,14.60
2018-12-10T18:03:41.319Z,14.60
2018-12-10T18:06:12.403Z,14.60
2018-12-10T18:08:43.605Z,14.60
2018-12-10T18:11:14.680Z,14.50
2018-12-10T18:13:45.867Z,14.50
2018-12-10T18:16:17.435Z,14.50
2018-12-10T18:18:48.796Z,14.50
2018-12-10T18:21:19.859Z,14.50
2018-12-10T18:23:50.995Z,14.50
2018-12-10T18:26:22.063Z,14.50
2018-12-10T18:28:53.175Z,14.50
2018-12-10T18:31:24.237Z,14.50
2018-12-10T18:33:55.350Z,14.50
2018-12-10T18:36:26.458Z,14.50
2018-12-10T18:38:57.676Z,14.50
2018-12-10T18:41:28.782Z,14.40
2018-12-10T18:43:59.848Z,14.40
2018-12-10T18:46:30.969Z,14.40
2018-12-10T18:49:02.049Z,14.40
2018-12-10T18:51:33.124Z,14.40
2018-12-10T18:54:05.168Z,14.40
2018-12-10T18:56:36.262Z,14.40
2018-12-10T18:59:07.399Z,14.40
2018-12-10T19:01:38.506Z,14.30
2018-12-10T19:04:09.532Z,14.30
2018-12-10T19:06:40.544Z,14.30
2018-12-10T19:09:11.935Z,14.30
2018-12-10T19:11:43.253Z,14.20
2018-12-10T19:14:14.352Z,14.30
2018-12-10T19:16:45.448Z,14.20
2018-12-10T19:19:16.539Z,14.20
2018-12-10T19:21:47.754Z,14.20
2018-12-10T19:24:18.892Z,14.20
2018-12-10T19:26:49.871Z,14.20
2018-12-10T19:29:20.970Z,14.20
2018-12-10T19:31:52.055Z,14.20
2018-12-10T19:34:23.220Z,14.20
2018-12-10T19:36:54.330Z,14.20
2018-12-10T19:39:25.424Z,14.20
2018-12-10T19:41:56.579Z,14.20
2018-12-10T19:44:27.663Z,14.10
2018-12-10T19:46:58.914Z,14.10
2018-12-10T19:49:30.217Z,14.20
2018-12-10T19:52:01.306Z,14.10
2018-12-10T19:54:32.390Z,14.10
2018-12-10T19:57:03.499Z,14.10
2018-12-10T19:59:34.636Z,14.10
2018-12-10T20:02:05.742Z,14.10
2018-12-10T20:04:36.858Z,14.10
2018-12-10T20:07:09.037Z,14.10
2018-12-10T20:09:40.107Z,14.10
2018-12-10T20:12:11.269Z,14.10
2018-12-10T20:14:42.428Z,14.10
2018-12-10T20:17:13.536Z,14.10
2018-12-10T20:19:44.691Z,14.10
2018-12-10T20:22:15.680Z,14.10
2018-12-10T20:24:46.782Z,14.10
2018-12-10T20:27:17.952Z,14.00
2018-12-10T20:29:49.057Z,14.00
2018-12-10T20:32:20.269Z,14.00
2018-12-10T20:34:51.361Z,14.00
2018-12-10T20:37:22.581Z,14.00
2018-12-10T20:39:53.732Z,14.00
2018-12-10T20:42:24.955Z,13.90
2018-12-10T20:44:56.031Z,13.90
2018-12-10T20:47:27.136Z,13.90
2018-12-10T20:49:58.212Z,13.80
2018-12-10T20:52:29.324Z,13.80
2018-12-10T20:55:00.449Z,13.80
2018-12-10T20:57:31.578Z,13.80
2018-12-10T21:00:02.662Z,13.70
2018-12-10T21:02:34.632Z,13.70
2018-12-10T21:05:05.732Z,13.70
2018-12-10T21:07:36.856Z,13.70
2018-12-10T21:10:09.273Z,13.60
2018-12-10T21:12:40.574Z,13.60
2018-12-10T21:15:11.672Z,13.60
2018-12-10T21:17:42.778Z,13.50
2018-12-10T21:20:13.864Z,13.50
2018-12-10T21:22:45.065Z,13.50
2018-12-10T21:25:16.244Z,13.50
2018-12-10T21:27:47.417Z,13.50
2018-12-10T21:30:18.521Z,13.50
2018-12-10T21:32:49.501Z,13.50
2018-12-10T21:35:20.460Z,13.60
2018-12-10T21:37:51.613Z,13.60
2018-12-10T21:40:22.700Z,13.60
2018-12-10T21:42:53.798Z,13.60
2018-12-10T21:45:24.874Z,13.60
2018-12-10T21:47:56.000Z,13.60
2018-12-10T21:50:27.088Z,13.60
2018-12-10T21:52:58.271Z,13.60
2018-12-10T21:55:29.444Z,13.60
2018-12-10T21:58:00.639Z,13.60
2018-12-10T22:00:31.737Z,13.60
2018-12-10T22:03:02.974Z,13.60
2018-12-10T22:05:34.111Z,13.60
2018-12-10T22:08:05.208Z,13.60
2018-12-10T22:10:36.387Z,13.60
2018-12-10T22:13:07.514Z,13.60
2018-12-10T22:15:38.726Z,13.60
2018-12-10T22:18:09.828Z,13.70
2018-12-10T22:20:40.908Z,13.60
2018-12-10T22:23:12.040Z,13.60
2018-12-10T22:25:43.119Z,13.70
2018-12-10T22:28:14.266Z,13.70
2018-12-10T22:30:45.385Z,13.70
2018-12-10T22:33:16.497Z,13.70
2018-12-10T22:35:47.580Z,13.70
2018-12-10T22:38:18.692Z,13.70
2018-12-10T22:40:49.680Z,13.70
2018-12-10T22:43:20.825Z,13.70
2018-12-10T22:45:51.918Z,13.70
2018-12-10T22:48:23.076Z,13.70
2018-12-10T22:50:54.172Z,13.70
2018-12-10T22:53:25.335Z,13.70
2018-12-10T22:55:56.338Z,13.70
2018-12-10T22:58:27.450Z,13.70
2018-12-10T23:00:58.530Z,13.70
2018-12-10T23:03:31.594Z,13.70
2018-12-10T23:06:02.581Z,13.60
2018-12-10T23:08:33.676Z,13.60
2018-12-10T23:11:04.750Z,13.60
2018-12-10T23:13:35.772Z,13.60
2018-12-10T23:16:06.851Z,13.60
2018-12-10T23:18:39.013Z,13.60
2018-12-10T23:21:10.086Z,13.60
2018-12-10T23:23:41.412Z,13.60
2018-12-10T23:26:12.553Z,13.60
2018-12-10T23:28:43.672Z,13.50
2018-12-10T23:31:14.774Z,13.50
2018-12-10T23:33:45.876Z,13.60
2018-12-10T23:36:16.966Z,13.60
2018-12-10T23:38:48.052Z,13.60
2018-12-10T23:41:19.143Z,13.60
2018-12-10T23:43:50.244Z,13.60
2018-12-10T23:46:21.340Z,13.60
2018-12-10T23:48:59.101Z,13.60
2018-12-10T23:51:30.176Z,13.60
2018-12-10T23:54:01.284Z,13.60
2018-12-10T23:56:32.369Z,13.60
2018-12-10T23:59:04.440Z,13.60
